createdAt,value
2022-07-28T08:35:35.491Z,50.525002
2022-07-28T08:36:43.754Z,50.567001
2022-07-28T08:37:52.399Z,50.578999
2022-07-28T08:39:01.046Z,50.617001
2022-07-28T08:40:09.668Z,50.666
2022-07-28T08:41:19.279Z,50.702
2022-07-28T08:42:28.915Z,50.737
2022-07-28T08:43:36.484Z,50.792999
2022-07-28T08:44:44.199Z,50.799999
2022-07-28T08:45:58.247Z,50.787998
2022-07-28T08:47:04.009Z,50.724998
2022-07-28T08:48:12.556Z,50.57
2022-07-28T08:49:21.232Z,50.588001
2022-07-28T08:50:29.804Z,50.682999
2022-07-28T08:51:39.439Z,50.722
2022-07-28T08:52:48.011Z,50.787998
2022-07-28T08:53:56.640Z,50.763
2022-07-28T08:55:05.245Z,50.673
2022-07-28T08:56:13.865Z,50.847
2022-07-28T08:57:22.452Z,50.776001
2022-07-28T08:58:31.043Z,50.576
2022-07-28T08:59:39.609Z,50.478001
2022-07-28T09:00:49.196Z,50.506001
2022-07-28T09:01:57.711Z,50.519001
2022-07-28T09:03:04.474Z,50.516998
2022-07-28T09:04:14.295Z,50.494999
2022-07-28T09:05:23.573Z,50.528
2022-07-28T09:06:32.165Z,50.509998
2022-07-28T09:07:40.737Z,50.376999
2022-07-28T09:08:49.298Z,50.387001
2022-07-28T09:10:02.670Z,50.403999
2022-07-28T09:11:07.516Z,50.43
2022-07-28T09:12:15.104Z,50.416
2022-07-28T09:13:25.673Z,50.405998
2022-07-28T09:14:34.223Z,50.403
2022-07-28T09:15:43.817Z,50.382999
2022-07-28T09:16:52.462Z,50.410999
2022-07-28T09:18:01.035Z,50.404999
2022-07-28T09:19:10.644Z,50.403
2022-07-28T09:20:20.379Z,50.387001
2022-07-28T09:21:27.862Z,50.333
2022-07-28T09:22:37.451Z,50.203999
2022-07-28T09:23:47.020Z,50.087002
2022-07-28T09:24:55.571Z,49.999001
2022-07-28T09:26:10.043Z,50.028
2022-07-28T11:53:09.631Z,47.513
2022-07-28T11:54:19.352Z,47.555
2022-07-28T11:55:49.523Z,47.658001
2022-07-28T11:56:36.573Z,47.768002
2022-07-28T11:57:48.535Z,47.827999
2022-07-28T11:58:55.872Z,47.846001
2022-07-28T12:00:05.530Z,47.776001
2022-07-28T12:01:17.634Z,47.646999
2022-07-28T12:02:24.698Z,47.925999
2022-07-28T12:03:38.328Z,47.942001
2022-07-28T12:04:44.844Z,47.723
2022-07-28T12:05:53.393Z,47.472
2022-07-28T12:07:03.021Z,47.429001
2022-07-28T12:08:11.629Z,47.335999
2022-07-28T12:09:25.721Z,47.148998
2022-07-28T12:10:56.214Z,47.362999
2022-07-28T12:11:41.324Z,47.458
2022-07-28T12:12:50.907Z,47.535999
2022-07-28T12:14:00.514Z,47.368999
2022-07-28T12:15:09.063Z,47.432999
2022-07-28T12:16:18.671Z,47.042
2022-07-28T12:17:27.231Z,46.755001
2022-07-28T12:18:35.847Z,46.800999
2022-07-28T12:19:46.413Z,46.737
2022-07-28T12:20:55.116Z,46.564999
2022-07-28T12:22:05.522Z,46.311001
2022-07-28T12:23:14.094Z,46.243
2022-07-28T12:24:23.676Z,46.469002
2022-07-28T12:25:33.249Z,46.548
2022-07-28T12:26:41.800Z,46.591
2022-07-28T12:27:51.364Z,46.654999
2022-07-28T12:28:59.945Z,46.720001
2022-07-28T12:30:08.486Z,46.723999
2022-07-28T12:31:18.139Z,46.637001
2022-07-28T12:32:26.404Z,46.519001
2022-07-28T12:33:34.236Z,46.501999
2022-07-28T12:34:43.837Z,46.548
2022-07-28T12:35:52.406Z,46.553001
2022-07-28T12:37:01.058Z,46.557999
2022-07-28T12:38:09.668Z,46.311001
2022-07-28T12:39:18.268Z,46.203999
2022-07-28T12:40:27.839Z,46.347
2022-07-28T12:41:36.529Z,46.474998
2022-07-28T12:42:44.724Z,46.584
2022-07-28T12:43:54.892Z,46.599998
2022-07-28T12:45:04.575Z,46.640999
2022-07-28T12:46:13.244Z,46.660999
2022-07-28T12:47:21.816Z,46.743999
2022-07-28T12:48:31.423Z,46.807999
2022-07-28T12:49:40.987Z,46.851002
2022-07-28T12:50:48.567Z,46.916
2022-07-28T12:51:56.142Z,46.951
2022-07-28T12:53:04.758Z,46.945999
2022-07-28T12:54:14.638Z,46.976002
2022-07-28T12:55:22.902Z,47.049
2022-07-28T12:56:32.500Z,47.053001
2022-07-28T12:57:43.390Z,47.070999
2022-07-28T12:58:49.614Z,47.133999
2022-07-28T12:59:59.206Z,47.127998
2022-07-28T13:01:07.841Z,47.047001
2022-07-28T13:02:16.470Z,47.112999
2022-07-28T13:03:25.310Z,47.187
2022-07-28T13:04:33.937Z,47.192001
2022-07-28T13:05:43.519Z,47.125
2022-07-28T13:06:52.121Z,47.134998
2022-07-28T13:08:01.967Z,47.159
2022-07-28T13:09:15.024Z,47.147999
2022-07-28T13:10:19.767Z,47.186001
2022-07-28T13:11:43.046Z,47.233002
2022-07-28T13:12:39.878Z,47.243
2022-07-28T13:13:48.444Z,47.206001
2022-07-28T13:14:58.054Z,47.095001
2022-07-28T13:16:06.642Z,46.986
2022-07-28T13:17:14.180Z,46.962002
2022-07-28T13:18:23.783Z,47.02
2022-07-28T13:19:32.400Z,46.928001
2022-07-28T13:20:41.957Z,46.832001
2022-07-28T13:21:56.070Z,46.82
2022-07-28T13:22:59.145Z,46.909
2022-07-28T13:24:08.809Z,46.957001
2022-07-28T13:25:17.392Z,46.882
2022-07-28T13:26:27.076Z,46.801998
2022-07-28T13:27:36.801Z,46.838001
2022-07-28T13:28:46.377Z,46.812
2022-07-28T13:29:54.981Z,46.831001
2022-07-28T13:31:04.532Z,46.801998
2022-07-28T13:32:13.280Z,46.804001
2022-07-28T13:33:22.801Z,46.853001
2022-07-28T13:34:32.297Z,46.898998
2022-07-28T13:35:40.909Z,46.933998
2022-07-28T13:36:50.559Z,46.939999
2022-07-28T13:37:59.242Z,47.001999
2022-07-28T13:39:08.911Z,46.946999
2022-07-28T13:40:18.381Z,46.889
2022-07-28T13:41:26.954Z,46.798
2022-07-28T13:42:37.502Z,46.727001
2022-07-28T13:43:48.102Z,46.530998
2022-07-28T13:44:54.642Z,46.423
2022-07-28T13:46:04.571Z,46.417
2022-07-28T13:47:16.512Z,46.348
2022-07-28T13:48:23.447Z,46.212002
2022-07-28T13:49:33.142Z,45.887001
2022-07-28T13:50:42.746Z,45.847
2022-07-28T13:51:52.495Z,45.977001
2022-07-28T13:53:00.175Z,46.015999
2022-07-28T13:54:14.161Z,46.105
2022-07-28T13:55:28.223Z,46.16
2022-07-28T13:56:36.765Z,46.224998
2022-07-28T13:57:46.348Z,46.298
2022-07-28T13:58:55.925Z,46.352001
2022-07-28T14:00:04.522Z,46.395
2022-07-28T14:01:14.146Z,46.344002
2022-07-28T14:02:22.745Z,46.307999
2022-07-28T14:03:55.265Z,46.316002
2022-07-28T14:04:45.764Z,46.334
2022-07-28T14:05:52.533Z,46.244999
2022-07-28T14:07:02.101Z,46.120998
2022-07-28T14:08:11.707Z,46.223999
2022-07-28T14:09:21.604Z,46.021999
2022-07-28T14:10:30.860Z,45.983002
2022-07-28T14:11:38.419Z,46.007
2022-07-28T14:12:47.986Z,46.110001
2022-07-28T14:13:57.590Z,46.110001
2022-07-28T14:15:07.252Z,46.154999
2022-07-28T14:16:16.901Z,46.144001
2022-07-28T14:17:43.127Z,46.109001
2022-07-28T14:18:34.981Z,46.046001
2022-07-28T14:19:44.584Z,46.066002
2022-07-28T14:20:55.114Z,45.897999
2022-07-28T14:22:04.493Z,45.721001
2022-07-28T14:23:14.278Z,45.653999
2022-07-28T14:24:23.861Z,45.813999
2022-07-28T14:25:48.143Z,45.903999
2022-07-28T14:26:43.987Z,45.928001
2022-07-28T14:27:52.565Z,46.126999
2022-07-28T14:29:02.215Z,46.132999
2022-07-28T14:30:12.858Z,45.971001
2022-07-28T14:31:22.512Z,45.938
2022-07-28T14:32:33.143Z,45.903
2022-07-28T14:33:45.747Z,45.688
2022-07-28T14:34:51.381Z,45.688
2022-07-28T14:36:01.991Z,45.717999
2022-07-28T14:37:11.557Z,45.660999
2022-07-28T14:38:51.489Z,45.640999
2022-07-28T14:39:32.022Z,45.488998
2022-07-28T14:40:41.041Z,45.063999
2022-07-28T14:41:51.473Z,45.272999
2022-07-28T14:43:00.150Z,45.283001
2022-07-28T14:44:12.400Z,45.097
2022-07-28T14:45:20.467Z,45.021
2022-07-28T14:46:30.155Z,44.515999
2022-07-28T14:47:44.105Z,44.880001
2022-07-28T14:48:50.859Z,44.393002
2022-07-28T14:50:00.936Z,43.688
2022-07-28T14:51:10.173Z,43.237999
2022-07-28T14:52:19.778Z,43.248001
2022-07-28T14:53:29.549Z,43.738998
2022-07-28T14:54:40.094Z,44.257
2022-07-28T14:55:48.733Z,44.500999
2022-07-28T14:56:56.345Z,42.969002
2022-07-28T14:58:06.153Z,43.655998
2022-07-28T14:59:14.756Z,43.188
2022-07-28T15:00:23.669Z,43.625999
2022-07-28T15:01:35.842Z,44.105
2022-07-28T15:02:42.001Z,43.986
2022-07-28T15:03:51.556Z,44.027
2022-07-28T15:04:59.451Z,43.849998
2022-07-28T15:06:08.035Z,43.957001
2022-07-28T15:07:17.670Z,44.284
2022-07-28T15:08:29.362Z,43.98
2022-07-28T15:09:40.047Z,44.206001
2022-07-28T15:10:48.912Z,44.456001
2022-07-28T15:11:55.264Z,44.557999
2022-07-28T15:13:04.887Z,44.546001
2022-07-28T15:14:14.596Z,44.603001
2022-07-28T15:15:22.228Z,44.775002
2022-07-28T15:16:31.865Z,44.648998
